Imst, Austria
Current Conditions -  °F | °C
As of 3:20 AM on Tuesday 25 Nov 2014 (Local Time) from LOWI Reporting Station
Overcast Overcast  
Wind Chill: 37°   Ceiling: 12000
Heat Index: 37°   Visibility: 6mi
Dew Point: 37°   Wind: 1mph
Humidity: 100%   Direction: NA
Pressure: 30.21"   Gusts: NA
Location:  47.25°N, 10.73°E
Report Text: LOWI 250120Z AUTO VRB01KT 9999 OVC120 03/03 Q1023
Loading
Personal Weather Stations






























Interactive Weather Map New forecast layout! Learn more

10-Day Weather Forecast

Advertisements
Track Severe Weather on mobile